• Join FlightAware (Why Join?)
  • Login
  • US Flag 
07:18AM EDT


 

Airport Tracker/Info


-or-


 

Live Flight TrackerFlight Track Log ✈ SWA1046 ✈ 01-May-2013 ✈ KALB - KMCO

Flight Track Log - Related Links

Times and Time Zones

All times are in EDT time to prevent confusion due to time zone crossing. See the SWA1046 flight status page for this flight to view local times or setup timezone preferences in your user account.

Time Position Orientation Groundspeed Altitude Reporting Facility
EDT Latitude Longitude Course Direction KTS MPH feet Rate Location/Type
07:51AM 42.7714 -73.8092 322° Northwest 162 186 1,300  Level Boston Center
07:52AM 42.8292 -73.8697 322° Northwest 253 291 4,700 3,000 Climbing Boston Center
07:53AM 42.8575 -73.9269 304° West 268 308 7,100 3,300 Climbing Boston Center
07:54AM 42.8897 -74.0186 296° West 273 314 10,400 2,760 Climbing Boston Center
07:55AM 42.8775 -74.1344 262° West 317 365 12,700 2,880 Climbing Boston Center
07:56AM 42.7808 -74.1911 203° Southwest 314 361 16,200 2,940 Climbing Boston Center
07:57AM 42.6964 -74.1322 153° Southeast 312 359 18,600 2,340 Climbing Boston Center
07:58AM 42.6075 -74.0706 153° Southeast 352 405 20,900 2,400 Climbing Boston Center
07:59AM 42.4900 -73.9886 153° Southeast 386 444 23,500 2,400 Climbing Boston Center
08:00AM 42.3928 -73.9189 152° Southeast 421 484 25,700 1,860 Climbing Boston Center
08:01AM 42.2814 -73.8403 152° Southeast 436 502 27,700 1,800 Climbing Boston Center
08:02AM 42.1314 -73.8203 174° South 441 507 29,700 1,140 Climbing Boston Center
08:03AM 41.9961 -73.8200 180° South 468 539 30,000 600 Climbing Boston Center
08:04AM 41.8606 -73.8228 181° South 481 554 31,000 960 Climbing Boston Center
08:05AM 41.7250 -73.8225 180° South 486 559 32,000 780 Climbing Boston Center
08:06AM 41.5853 -73.8222 180° South 496 571 32,600 540 Climbing Boston Center
08:07AM 41.4575 -73.8161 178° South 500 575 33,000 180 Climbing New York Center
08:08AM 41.3331 -73.8078 177° South 500 575 33,000 240 Level New York Center
08:09AM 41.1978 -73.7989 177° South 500 575 33,500 1,080 Climbing New York Center
08:10AM 41.0625 -73.7928 178° South 494 568 35,200 1,620 Climbing New York Center
08:11AM 40.9125 -73.7942 180° South 494 568 36,800 1,380 Climbing New York Center
08:12AM 40.8028 -73.8553 203° Southwest 480 552 38,000 600 Climbing New York Center
08:13AM 40.6797 -73.9317 205° Southwest 485 558 38,000  Level New York Center
08:14AM 40.5650 -74.0164 209° Southwest 485 558 38,000  Level New York Center
08:15AM 40.4461 -74.0981 208° Southwest 485 558 38,000  Level New York Center
08:17AM 40.2164 -74.2550 208° Southwest 498 573 38,000  Level Washington Center
08:18AM 40.0986 -74.3383 208° Southwest 491 565 38,000  Level Washington Center
08:19AM 39.9786 -74.4192 207° Southwest 491 565 38,000  Level Washington Center
08:20AM 39.8606 -74.4994 208° Southwest 491 565 38,000  Level Washington Center
08:21AM 39.7406 -74.5822 208° Southwest 486 559 38,000  Level Washington Center
08:22AM 39.6225 -74.6622 208° Southwest 486 559 38,000  Level Washington Center
08:23AM 39.4939 -74.7497 208° Southwest 486 559 38,000  Level Washington Center
08:24AM 39.3736 -74.8344 209° Southwest 486 559 38,000  Level Washington Center
08:25AM 39.2553 -74.9108 207° Southwest 486 559 38,000  Level Washington Center
08:26AM 39.1369 -74.9894 207° Southwest 486 559 38,000  Level Washington Center
08:27AM 39.0206 -75.0706 208° Southwest 481 554 38,000  Level Washington Center
08:28AM 38.9083 -75.1594 212° Southwest 481 554 38,000  Level Washington Center
08:29AM 38.8483 -75.3039 242° Southwest 444 511 38,000  Level Washington Center
08:30AM 38.8131 -75.4531 253° West 438 504 38,000  Level Washington Center
08:31AM 38.7547 -75.5917 242° Southwest 438 504 38,000  Level Washington Center
08:32AM 38.6361 -75.6503 201° Southwest 425 489 38,000  Level Washington Center
08:33AM 38.5047 -75.5944 162° South 412 474 38,000  Level Washington Center
08:34AM 38.3836 -75.5333 158° South 438 504 38,000  Level Washington Center
08:35AM 38.2650 -75.5389 182° South 455 524 38,000  Level Washington Center
08:36AM 38.1397 -75.5969 200° South 460 529 38,000  Level Washington Center
08:37AM 38.0042 -75.6631 201° Southwest 466 536 38,000  Level Washington Center
08:38AM 37.8789 -75.7181 199° South 479 551 38,000  Level Washington Center
08:39AM 37.7517 -75.7678 197° South 479 551 38,000  Level Washington Center
08:40AM 37.6264 -75.8253 200° South 484 557 38,000  Level Washington Center
08:41AM 37.5033 -75.8772 199° South 484 557 38,000  Level Washington Center
08:42AM 37.3842 -75.9447 204° Southwest 484 557 38,000  Level Washington Center
08:43AM 37.2611 -76.0094 203° Southwest 479 551 38,000  Level Washington Center
08:44AM 37.1397 -76.0739 203° Southwest 474 545 38,000  Level Washington Center
08:45AM 37.0186 -76.1381 203° Southwest 474 545 38,000  Level Washington Center
08:46AM 36.9056 -76.1919 201° Southwest 481 554 38,000  Level Washington Center
08:47AM 36.7883 -76.2661 207° Southwest 481 554 38,000  Level Washington Center
08:48AM 36.6689 -76.3558 211° Southwest 475 547 38,000  Level Washington Center
08:49AM 36.5558 -76.4322 208° Southwest 469 540 38,000  Level Washington Center
08:50AM 36.4425 -76.5086 208° Southwest 469 540 38,000  Level Washington Center
08:51AM 36.3272 -76.5844 208° Southwest 463 533 38,000  Level Washington Center
08:52AM 36.2161 -76.6578 208° Southwest 463 533 38,000  Level Washington Center
08:53AM 36.1047 -76.7283 207° Southwest 458 527 38,000  Level Washington Center
08:54AM 35.9875 -76.7781 199° South 453 521 38,000  Level Washington Center
08:55AM 35.8828 -76.8225 199° South 443 510 38,000  Level Washington Center
08:56AM 35.7653 -76.8719 199° South 449 517 38,000  Level Washington Center
08:57AM 35.6500 -76.9186 198° South 444 511 38,000  Level Washington Center
08:58AM 35.5389 -76.9706 201° Southwest 444 511 38,000  Level Washington Center
08:59AM 35.4172 -77.0194 198° South 449 517 38,000  Level Washington Center
09:00AM 35.2997 -77.0681 199° South 449 517 38,000  Level Washington Center
09:01AM 35.1825 -77.1169 199° South 454 522 38,000  Level Washington Center
09:02AM 35.0628 -77.1653 198° South 448 516 38,000  Level Washington Center
09:03AM 34.9494 -77.2139 199° South 443 510 38,000  Level Washington Center
09:04AM 34.8319 -77.2619 199° South 448 516 38,000  Level Washington Center
09:05AM 34.7061 -77.3175 200° South 448 516 38,000  Level Washington Center
09:06AM 34.5906 -77.3656 199° South 448 516 38,000  Level Washington Center
09:07AM 34.4731 -77.4136 199° South 448 516 38,000  Level Washington Center
09:08AM 34.3533 -77.4611 198° South 448 516 38,000  Level Washington Center
09:12AM 33.9617 -77.6147 198° South 430 495 38,000  Level Jacksonville Center
09:13AM 33.8450 -77.6667 200° South 435 501 38,000  Level Jacksonville Center
09:14AM 33.7300 -77.7111 198° South 430 495 38,000  Level Jacksonville Center
09:15AM 33.5986 -77.7661 199° South 437 503 38,000  Level Jacksonville Center
09:16AM 33.4797 -77.8128 198° South 437 503 38,000  Level Jacksonville Center
09:17AM 33.3606 -77.8594 198° South 447 514 38,000  Level Jacksonville Center
09:18AM 33.2433 -77.9083 199° South 456 525 38,000  Level Jacksonville Center
09:19AM 33.1261 -77.9519 197° South 456 525 38,000  Level Jacksonville Center
09:20AM 33.0069 -78.0008 199° South 445 512 38,000  Level Jacksonville Center
09:21AM 32.8900 -78.0467 198° South 451 519 38,000  Level Jacksonville Center
09:22AM 32.7728 -78.0925 198° South 440 506 38,000  Level Jacksonville Center
09:23AM 32.6575 -78.1356 197° South 432 497 38,000  Level Jacksonville Center
09:24AM 32.5444 -78.1833 200° South 432 497 38,000  Level Jacksonville Center
09:25AM 32.4292 -78.2286 198° South 434 499 38,000  Level Jacksonville Center
09:26AM 32.3139 -78.2739 198° South 423 487 38,000  Level Jacksonville Center
09:27AM 32.2008 -78.3164 198° South 423 487 38,000  Level Jacksonville Center
09:28AM 32.0856 -78.3614 198° South 423 487 38,000  Level Jacksonville Center
09:29AM 31.9722 -78.4039 198° South 418 481 38,000  Level Jacksonville Center
09:30AM 31.8592 -78.4508 199° South 424 488 38,000  Level Jacksonville Center
09:31AM 31.7436 -78.4906 196° South 433 498 38,000  Level Jacksonville Center
09:32AM 31.6322 -78.5325 198° South 427 491 38,000  Level Jacksonville Center
09:33AM 31.5317 -78.5786 201° Southwest 420 483 38,000  Level Jacksonville Center
09:34AM 31.4181 -78.6181 197° South 420 483 38,000  Level Jacksonville Center
09:35AM 31.3089 -78.6619 199° South 420 483 38,000  Level Jacksonville Center
09:36AM 31.1872 -78.7039 196° South 419 482 38,000  Level Jacksonville Center
09:37AM 31.0778 -78.7425 197° South 414 476 38,000  Level Jacksonville Center
09:38AM 30.9667 -78.7911 201° Southwest 421 484 38,000  Level Jacksonville Center
09:39AM 30.8575 -78.8344 199° South 421 484 38,000  Level Jacksonville Center
09:40AM 30.7397 -78.8758 197° South 432 497 38,000  Level Jacksonville Center
09:41AM 30.6325 -78.9189 199° South 429 494 38,000  Level Jacksonville Center
09:41AM 30.5653 -78.9414 196° South 431 496 38,000  Level Miami Center
09:42AM 30.4542 -78.9825 198° South 426 490 38,000  Level Miami Center
09:43AM 30.3431 -79.0283 200° South 431 496 38,000  Level Miami Center
09:44AM 30.2361 -79.0764 201° Southwest 426 490 38,000  Level Miami Center
09:45AM 30.1228 -79.1244 200° South 426 490 38,000  Level Miami Center
09:46AM 30.0114 -79.1725 200° South 432 497 38,000  Level Miami Center
09:47AM 29.9189 -79.2206 204° Southwest 418 481 38,000  Level Miami Center
09:48AM 29.8117 -79.2708 202° Southwest 418 481 38,000  Level Miami Center
09:49AM 29.7006 -79.3114 198° South 424 488 38,000  Level Miami Center
09:50AM 29.5933 -79.3592 201° Southwest 419 482 38,000  Level Miami Center
09:51AM 29.4839 -79.4067 201° Southwest 419 482 38,000 -240 Level Miami Center
09:52AM 29.3789 -79.4542 202° Southwest 414 476 37,600 -1,740 Descending Miami Center
09:53AM 29.2675 -79.4992 199° South 414 476 34,600 -2,940 Descending Miami Center
09:54AM 29.1561 -79.5464 200° South 422 486 31,800 -3,000 Descending Miami Center
09:55AM 29.0731 -79.6322 222° Southwest 412 474 28,600 -3,120 Descending Miami Center
09:56AM 29.0372 -79.7619 252° West 399 459 25,600 -2,700 Descending Miami Center
09:57AM 29.0011 -79.8867 252° West 405 466 23,300 -2,280 Descending Miami Center
09:58AM 28.9611 -80.0042 249° West 405 466 21,100 -2,160 Descending Miami Center
09:59AM 28.9272 -80.1169 251° West 399 459 19,000 -2,160 Descending Miami Center
10:01AM 28.8500 -80.3667 251° West 349 402 14,300 -1,500 Descending Orlando TRACON
10:03AM 28.8333 -80.4833 261° West 334 384 14,000 -840 Descending Orlando TRACON
10:03AM 28.8167 -80.5667 257° West 333 383 12,700 -1,740 Descending Orlando TRACON
10:05AM 28.8000 -80.6833 261° West 330 380 10,600 -1,320 Descending Orlando TRACON
10:06AM 28.8000 -80.7833 270° West 287 330 10,000 -300 Descending Orlando TRACON
10:07AM 28.8000 -80.8667 270° West 286 329 10,000 -180 Level Orlando TRACON
10:08AM 28.8000 -80.9500 270° West 261 300 9,700 -540 Descending Orlando TRACON
10:08AM 28.8167 -81.0167 286° West 247 284 9,000 -360 Descending Orlando TRACON
10:10AM 28.7500 -81.0667 213° Southwest 232 267 9,000  Level Orlando TRACON
10:11AM 28.7000 -81.1000 210° Southwest 241 277 9,000  Level Orlando TRACON
10:12AM 28.6333 -81.1333 204° Southwest 244 281 9,000  Level Orlando TRACON
10:12AM 28.5833 -81.1667 210° Southwest 248 285 9,000 -240 Level Orlando TRACON
10:13AM 28.5167 -81.1833 192° South 247 284 8,600 -780 Descending Orlando TRACON
10:14AM 28.4500 -81.1833 180° South 236 272 7,500 -1,320 Descending Orlando TRACON
10:15AM 28.3667 -81.1833 180° South 250 288 6,000 -1,320 Descending Orlando TRACON
10:17AM 28.3000 -81.2000 192° South 227 261 4,800 -1,140 Descending Orlando TRACON
10:17AM 28.3000 -81.2500 270° West 184 212 3,800 -1,380 Descending Orlando TRACON
10:18AM 28.3333 -81.3000 307° West 173 199 2,200 -1,620 Descending Orlando TRACON